Time;durP1;ratioP1;P1;durP2;ratioP2;P2;SDS_P1;SDS_P2;PMS_P1;PMS_P2;Temp;Humidity;BMP_temperature;BMP_pressure;BME280_temperature;BME280_humidity;BME280_pressure;Samples;Min_cycle;Max_cycle;Signal;HPM_P1;HPM_P2
2024/03/07 00:01:35;;;;;;;61.97;33.72;;;5.90;99.90;;;;;;477018;249;28045;-74
2024/03/07 00:03:36;;;;;;;52.67;30.08;;;5.90;99.90;;;;;;468120;251;27486;-73
2024/03/07 00:05:38;;;;;;;57.10;33.13;;;5.90;99.90;;;;;;477006;249;27422;-74
2024/03/07 00:07:39;;;;;;;56.33;32.30;;;5.80;99.90;;;;;;468092;251;27576;-71
2024/03/07 00:09:40;;;;;;;56.50;34.33;;;5.80;99.90;;;;;;477008;249;28697;-71
2024/03/07 00:11:41;;;;;;;55.30;32.30;;;5.80;99.90;;;;;;468122;251;27450;-73
2024/03/07 00:13:43;;;;;;;66.37;34.90;;;5.80;99.90;;;;;;476984;249;27522;-74
2024/03/07 00:15:44;;;;;;;59.58;33.45;;;5.80;99.90;;;;;;468097;251;27502;-73
2024/03/07 00:17:45;;;;;;;57.03;33.72;;;5.80;99.90;;;;;;476887;249;27430;-73
2024/03/07 00:19:47;;;;;;;56.95;34.95;;;5.80;99.90;;;;;;468107;251;28060;-75
2024/03/07 00:21:48;;;;;;;59.05;34.30;;;5.80;99.90;;;;;;476942;249;27414;-73
2024/03/07 00:23:49;;;;;;;62.65;34.42;;;5.80;99.90;;;;;;468045;251;27460;-73
2024/03/07 00:25:50;;;;;;;57.70;33.72;;;5.70;99.90;;;;;;476928;249;27450;-73
2024/03/07 00:27:53;;;;;;;63.87;33.65;;;5.70;99.90;;;;;;476508;249;27858;-73
2024/03/07 00:29:53;;;;;;;59.60;33.58;;;5.80;99.90;;;;;;476906;249;27561;-74
2024/03/07 00:31:54;;;;;;;55.35;33.45;;;5.70;99.90;;;;;;468108;251;27414;-73
2024/03/07 00:33:56;;;;;;;56.70;34.33;;;5.70;99.90;;;;;;476872;249;27437;-73
2024/03/07 00:35:57;;;;;;;56.50;34.72;;;5.80;99.90;;;;;;468110;251;27570;-74
2024/03/07 00:37:58;;;;;;;56.37;32.38;;;5.70;99.90;;;;;;476943;249;27854;-73
2024/03/07 00:39:59;;;;;;;53.75;33.75;;;5.70;99.90;;;;;;468107;251;27497;-73
2024/03/07 00:42:02;;;;;;;59.15;34.35;;;5.70;99.90;;;;;;476996;249;28787;-73
2024/03/07 00:44:02;;;;;;;54.10;31.92;;;5.70;99.90;;;;;;468116;251;27438;-73
2024/03/07 00:46:06;;;;;;;56.58;34.53;;;5.70;99.90;;;;;;476993;249;27438;-74
2024/03/07 00:48:05;;;;;;;54.08;32.55;;;5.70;99.90;;;;;;467893;254;27442;-73
2024/03/07 00:50:09;;;;;;;54.42;32.47;;;5.70;99.90;;;;;;476949;249;27514;-73
2024/03/07 00:52:08;;;;;;;57.23;33.33;;;5.70;99.90;;;;;;467959;254;28029;-74
2024/03/07 00:54:08;;;;;;;54.15;33.08;;;5.60;99.90;;;;;;476972;249;29213;-74
2024/03/07 00:56:09;;;;;;;50.72;32.10;;;5.50;99.90;;;;;;468110;251;27556;-74
2024/03/07 00:58:12;;;;;;;49.10;30.12;;;5.50;99.90;;;;;;476799;249;27529;-73
2024/03/07 01:00:13;;;;;;;57.00;33.90;;;5.50;99.90;;;;;;468107;251;27449;-73
2024/03/07 01:02:14;;;;;;;52.38;31.60;;;5.50;99.90;;;;;;476814;249;27926;-74
2024/03/07 01:04:14;;;;;;;45.53;27.73;;;5.50;99.90;;;;;;468066;251;27936;-73
2024/03/07 01:06:16;;;;;;;55.58;35.20;;;5.50;99.90;;;;;;476956;249;27446;-74
2024/03/07 01:08:17;;;;;;;54.78;31.45;;;5.40;99.90;;;;;;468077;251;27439;-74
2024/03/07 01:10:18;;;;;;;47.45;28.73;;;5.40;99.90;;;;;;476960;249;27407;-73
2024/03/07 01:12:22;;;;;;;64.62;34.33;;;5.30;99.90;;;;;;468117;251;27911;-73
2024/03/07 01:14:21;;;;;;;47.25;28.98;;;5.30;99.90;;;;;;476842;249;28010;-73
2024/03/07 01:16:22;;;;;;;48.50;31.17;;;5.20;99.90;;;;;;468096;254;27533;-73
2024/03/07 01:18:23;;;;;;;53.67;31.55;;;5.20;99.90;;;;;;476986;249;27549;-74
2024/03/07 01:20:25;;;;;;;57.05;32.97;;;5.10;99.90;;;;;;468146;251;27518;-73
2024/03/07 01:22:26;;;;;;;63.70;36.42;;;5.10;99.90;;;;;;476990;249;27915;-72
2024/03/07 01:24:27;;;;;;;58.50;33.55;;;5.00;99.90;;;;;;468085;251;28720;-73
2024/03/07 01:26:28;;;;;;;59.67;35.00;;;5.00;99.90;;;;;;477027;249;27399;-71
2024/03/07 01:28:30;;;;;;;58.95;35.45;;;4.90;99.90;;;;;;468063;251;27577;-73
2024/03/07 01:30:31;;;;;;;60.30;34.17;;;4.90;99.90;;;;;;476965;249;27441;-73
2024/03/07 01:32:32;;;;;;;58.65;33.47;;;4.80;99.90;;;;;;468076;251;27458;-73
2024/03/07 01:34:33;;;;;;;57.55;33.63;;;4.80;99.90;;;;;;476995;249;27930;-74
2024/03/07 01:36:35;;;;;;;49.78;29.55;;;4.80;99.90;;;;;;468107;251;27427;-73
2024/03/07 01:38:36;;;;;;;63.42;34.40;;;4.70;99.90;;;;;;476957;249;27450;-73
2024/03/07 01:40:37;;;;;;;48.65;28.12;;;4.70;99.90;;;;;;468085;251;27415;-73
2024/03/07 01:42:38;;;;;;;60.58;35.15;;;4.70;99.90;;;;;;477024;249;27446;-73
2024/03/07 01:44:43;;;;;;;62.10;35.22;;;4.70;99.90;;;;;;468108;251;27968;-73
2024/03/07 01:46:44;;;;;;;60.95;33.53;;;4.60;99.90;;;;;;476958;249;27431;-73
2024/03/07 01:48:46;;;;;;;51.55;30.17;;;4.50;99.90;;;;;;468038;251;27421;-73
2024/03/07 01:50:47;;;;;;;48.83;29.27;;;4.50;99.90;;;;;;476945;249;27620;-73
2024/03/07 01:52:48;;;;;;;53.92;29.63;;;4.50;99.90;;;;;;468112;251;27484;-73
2024/03/07 01:54:49;;;;;;;52.05;29.30;;;4.50;99.90;;;;;;476948;249;27999;-73
2024/03/07 01:56:50;;;;;;;53.00;29.15;;;4.50;99.90;;;;;;468100;251;28028;-73
2024/03/07 01:58:51;;;;;;;54.47;30.55;;;4.50;99.90;;;;;;476922;249;27441;-73
2024/03/07 02:00:53;;;;;;;49.35;29.65;;;4.60;99.90;;;;;;468140;251;27446;-73
2024/03/07 02:02:54;;;;;;;49.85;28.27;;;4.60;99.90;;;;;;476973;249;27438;-74
2024/03/07 02:04:55;;;;;;;58.92;32.80;;;4.60;99.90;;;;;;468085;251;27514;-73
2024/03/07 02:06:57;;;;;;;46.22;28.83;;;4.60;99.90;;;;;;476980;249;27454;-74
2024/03/07 02:08:58;;;;;;;50.35;28.40;;;4.60;99.90;;;;;;468054;251;28111;-75
2024/03/07 02:10:59;;;;;;;52.85;30.85;;;4.70;99.90;;;;;;477025;249;27401;-73
2024/03/07 02:13:03;;;;;;;49.10;28.55;;;4.70;99.90;;;;;;468100;251;27552;-73
2024/03/07 02:15:04;;;;;;;61.47;33.20;;;4.70;99.90;;;;;;476966;249;27913;-74
2024/03/07 02:17:06;;;;;;;46.30;28.92;;;4.80;99.90;;;;;;468089;251;27438;-73
2024/03/07 02:19:07;;;;;;;46.22;27.45;;;4.80;99.90;;;;;;476974;249;27545;-73
2024/03/07 02:21:09;;;;;;;43.97;28.33;;;4.80;99.90;;;;;;468113;251;27493;-74
2024/03/07 02:23:10;;;;;;;50.97;29.73;;;4.70;99.90;;;;;;476991;249;27403;-73
2024/03/07 02:25:11;;;;;;;48.95;29.83;;;4.70;99.90;;;;;;468099;251;27950;-73
2024/03/07 02:27:12;;;;;;;47.60;28.15;;;4.80;99.90;;;;;;477020;249;27538;-74
2024/03/07 02:29:13;;;;;;;53.17;31.00;;;4.80;99.90;;;;;;468064;251;27506;-73
2024/03/07 02:31:15;;;;;;;55.83;32.00;;;4.80;99.90;;;;;;476985;249;27509;-73
2024/03/07 02:33:16;;;;;;;64.15;34.47;;;4.90;99.90;;;;;;468113;251;27491;-73
2024/03/07 02:35:18;;;;;;;62.85;37.83;;;4.80;99.90;;;;;;476999;249;27446;-73
2024/03/07 02:37:18;;;;;;;62.78;35.38;;;4.80;99.90;;;;;;468072;251;27955;-74
2024/03/07 02:39:20;;;;;;;58.30;35.90;;;4.80;99.90;;;;;;477004;249;27461;-71
2024/03/07 02:41:21;;;;;;;66.85;36.83;;;4.80;99.90;;;;;;468107;251;27486;-71
2024/03/07 02:43:22;;;;;;;61.10;36.17;;;4.80;99.90;;;;;;477013;249;27462;-71
2024/03/07 02:45:23;;;;;;;58.55;33.95;;;4.80;99.90;;;;;;468160;254;27505;-71
2024/03/07 02:47:25;;;;;;;63.83;34.20;;;4.80;99.90;;;;;;477001;249;27997;-71
2024/03/07 02:49:26;;;;;;;70.20;38.47;;;4.80;99.90;;;;;;468133;251;27996;-73
2024/03/07 02:51:27;;;;;;;60.65;34.90;;;4.70;99.90;;;;;;476993;249;27427;-73
2024/03/07 02:53:28;;;;;;;52.15;30.95;;;4.70;99.90;;;;;;468177;251;27461;-74
2024/03/07 02:55:30;;;;;;;60.55;35.50;;;4.70;99.90;;;;;;477029;249;27403;-73
2024/03/07 02:57:31;;;;;;;60.95;35.58;;;4.70;99.90;;;;;;468103;251;27474;-74
2024/03/07 02:59:32;;;;;;;51.03;30.77;;;4.70;99.90;;;;;;476988;249;27938;-73
2024/03/07 03:01:33;;;;;;;56.58;33.28;;;4.70;99.90;;;;;;468119;251;27900;-73
2024/03/07 03:03:35;;;;;;;61.10;37.55;;;4.60;99.90;;;;;;476990;249;27417;-74
2024/03/07 03:05:36;;;;;;;65.07;38.63;;;4.60;99.90;;;;;;468093;251;27424;-72
2024/03/07 03:07:37;;;;;;;65.78;38.85;;;4.50;99.90;;;;;;476938;249;27905;-72
2024/03/07 03:09:43;;;;;;;67.18;37.05;;;4.50;99.90;;;;;;468093;251;27463;-72
2024/03/07 03:11:43;;;;;;;66.80;38.33;;;4.50;99.90;;;;;;476941;249;27398;-73
2024/03/07 03:13:46;;;;;;;73.22;38.35;;;4.50;99.90;;;;;;468115;251;27916;-73
2024/03/07 03:15:45;;;;;;;64.00;35.67;;;4.40;99.90;;;;;;476880;249;27941;-73
2024/03/07 03:17:46;;;;;;;55.83;33.75;;;4.40;99.90;;;;;;468106;251;27499;-73
2024/03/07 03:19:49;;;;;;;59.25;35.55;;;4.40;99.90;;;;;;476970;249;27470;-73
2024/03/07 03:21:49;;;;;;;59.95;35.92;;;4.40;99.90;;;;;;468103;251;27829;-73
2024/03/07 03:23:50;;;;;;;56.40;34.38;;;4.40;99.90;;;;;;476971;249;27569;-73
2024/03/07 03:25:51;;;;;;;65.25;37.03;;;4.30;99.90;;;;;;468117;251;27493;-73
2024/03/07 03:27:53;;;;;;;68.72;37.22;;;4.30;99.90;;;;;;476934;249;28643;-71
2024/03/07 03:29:54;;;;;;;65.78;36.92;;;4.20;99.90;;;;;;468134;251;28051;-71
2024/03/07 03:31:55;;;;;;;68.62;34.70;;;4.20;99.90;;;;;;476992;249;27469;-71
2024/03/07 03:33:56;;;;;;;61.22;33.53;;;4.10;99.90;;;;;;468107;251;27419;-71
2024/03/07 03:35:59;;;;;;;49.60;29.60;;;4.10;99.90;;;;;;476968;249;27454;-71
2024/03/07 03:37:59;;;;;;;48.35;28.45;;;4.00;99.90;;;;;;468081;251;27904;-72
2024/03/07 03:40:00;;;;;;;51.00;31.98;;;4.00;99.90;;;;;;477025;249;27438;-70
2024/03/07 03:42:02;;;;;;;51.80;28.48;;;3.90;99.90;;;;;;468118;251;27462;-71
2024/03/07 03:44:03;;;;;;;48.75;28.73;;;3.80;99.90;;;;;;476946;249;27446;-71
2024/03/07 03:46:04;;;;;;;55.08;30.30;;;3.80;99.90;;;;;;468117;251;27945;-71
2024/03/07 03:48:05;;;;;;;56.95;32.03;;;3.70;99.90;;;;;;476940;249;27964;-72
2024/03/07 03:50:07;;;;;;;59.03;35.88;;;3.70;99.90;;;;;;468082;251;27426;-71
2024/03/07 03:52:08;;;;;;;65.20;33.72;;;3.60;99.90;;;;;;476957;249;27517;-71
2024/03/07 03:54:09;;;;;;;53.15;28.58;;;3.70;99.90;;;;;;468092;251;27552;-71
2024/03/07 03:56:12;;;;;;;53.25;29.63;;;3.60;99.90;;;;;;477008;249;27578;-71
2024/03/07 03:58:12;;;;;;;52.45;30.58;;;3.50;99.90;;;;;;468016;254;27597;-72
2024/03/07 04:00:13;;;;;;;50.58;29.87;;;3.50;99.90;;;;;;476895;249;27509;-71
2024/03/07 04:02:14;;;;;;;49.85;28.35;;;3.50;99.90;;;;;;468041;251;27960;-71
2024/03/07 04:04:15;;;;;;;45.67;28.48;;;3.40;99.90;;;;;;476994;249;27980;-72
2024/03/07 04:06:17;;;;;;;53.65;30.02;;;3.40;99.90;;;;;;468090;251;27442;-71
2024/03/07 04:08:20;;;;;;;49.92;29.90;;;3.40;99.90;;;;;;476951;249;27534;-71
2024/03/07 04:10:19;;;;;;;47.38;28.02;;;3.40;99.90;;;;;;468036;251;27442;-71
2024/03/07 04:12:21;;;;;;;56.20;29.58;;;3.30;99.90;;;;;;476995;249;27440;-71
2024/03/07 04:14:22;;;;;;;49.47;28.73;;;3.30;99.90;;;;;;468078;251;27474;-72
2024/03/07 04:16:23;;;;;;;45.55;26.70;;;3.30;99.90;;;;;;476979;249;27871;-70
2024/03/07 04:18:25;;;;;;;48.28;28.67;;;3.30;99.90;;;;;;468068;251;28083;-71
2024/03/07 04:20:25;;;;;;;43.13;26.45;;;3.30;99.90;;;;;;476955;249;27537;-71
2024/03/07 04:22:27;;;;;;;52.28;30.58;;;3.20;99.90;;;;;;468147;251;27425;-71
2024/03/07 04:24:28;;;;;;;60.05;33.13;;;3.10;99.90;;;;;;476972;249;27470;-71
2024/03/07 04:26:29;;;;;;;51.35;29.15;;;3.10;99.90;;;;;;468109;251;27430;-70
2024/03/07 04:28:31;;;;;;;48.53;28.52;;;3.10;99.90;;;;;;476935;249;27445;-72
2024/03/07 04:30:32;;;;;;;51.75;28.70;;;3.00;99.90;;;;;;468106;251;27486;-72
2024/03/07 04:32:34;;;;;;;49.60;28.08;;;2.90;99.90;;;;;;476995;249;27890;-71
2024/03/07 04:34:36;;;;;;;55.63;31.35;;;2.90;99.90;;;;;;468050;254;27979;-71
2024/03/07 04:36:36;;;;;;;50.95;28.58;;;2.90;99.90;;;;;;476891;249;27438;-71
2024/03/07 04:38:37;;;;;;;65.62;33.55;;;2.90;99.90;;;;;;468061;251;27522;-71
2024/03/07 04:40:38;;;;;;;53.35;30.50;;;2.90;99.90;;;;;;477004;249;27545;-71
2024/03/07 04:42:39;;;;;;;64.03;34.10;;;2.80;99.90;;;;;;468104;251;27422;-70
2024/03/07 04:44:41;;;;;;;57.58;32.47;;;2.70;99.90;;;;;;476964;249;27444;-71
2024/03/07 04:46:44;;;;;;;59.72;31.23;;;2.60;99.90;;;;;;468128;251;28001;-72
2024/03/07 04:48:43;;;;;;;54.40;31.00;;;2.60;99.90;;;;;;476879;249;27885;-71
2024/03/07 04:50:44;;;;;;;66.85;35.67;;;2.60;99.90;;;;;;468088;251;27565;-72
2024/03/07 04:52:46;;;;;;;51.15;29.70;;;2.60;99.90;;;;;;476951;249;27494;-71
2024/03/07 04:54:47;;;;;;;65.70;36.35;;;2.60;99.90;;;;;;468083;251;27457;-71
2024/03/07 04:56:48;;;;;;;64.03;34.42;;;2.60;99.90;;;;;;476996;249;27441;-72
2024/03/07 04:58:49;;;;;;;65.37;35.80;;;2.60;99.90;;;;;;468061;251;27438;-71
2024/03/07 05:00:51;;;;;;;62.30;34.05;;;2.50;99.90;;;;;;476978;249;27463;-71
2024/03/07 05:02:52;;;;;;;58.00;33.88;;;2.40;99.90;;;;;;468113;251;27885;-71
2024/03/07 05:04:53;;;;;;;62.97;34.63;;;2.40;99.90;;;;;;476972;249;27946;-70
2024/03/07 05:06:54;;;;;;;60.67;34.20;;;2.30;99.90;;;;;;468117;251;27552;-72
2024/03/07 05:08:56;;;;;;;62.33;34.20;;;2.30;99.90;;;;;;476921;249;27403;-71
2024/03/07 05:10:57;;;;;;;68.87;36.15;;;2.30;99.90;;;;;;468073;251;27483;-70
2024/03/07 05:13:01;;;;;;;78.07;38.03;;;2.30;99.90;;;;;;476976;249;27454;-72
2024/03/07 05:15:04;;;;;;;65.85;34.63;;;2.30;99.90;;;;;;468061;251;27474;-72
2024/03/07 05:17:08;;;;;;;78.68;39.45;;;2.30;99.90;;;;;;476918;249;27407;-71
2024/03/07 05:19:07;;;;;;;78.82;39.53;;;2.20;99.90;;;;;;467675;254;27953;-71
2024/03/07 05:21:34;;;;;;;73.20;39.83;;;2.30;99.90;;;;;;476844;249;28614;-70
2024/03/07 05:23:07;;;;;;;66.22;36.60;;;2.30;99.90;;;;;;466537;254;27442;-71
2024/03/07 05:25:09;;;;;;;63.80;34.22;;;2.30;99.90;;;;;;477002;249;27542;-72
2024/03/07 05:27:13;;;;;;;61.50;33.35;;;2.30;99.90;;;;;;468114;251;27435;-71
2024/03/07 05:29:15;;;;;;;65.32;37.75;;;2.20;99.90;;;;;;476945;249;27501;-71
2024/03/07 05:31:18;;;;;;;59.47;34.15;;;2.20;99.90;;;;;;468110;251;27446;-72
2024/03/07 05:33:17;;;;;;;76.45;39.25;;;2.20;99.90;;;;;;476902;249;27508;-71
2024/03/07 05:35:18;;;;;;;65.80;36.00;;;2.20;99.90;;;;;;468120;251;27878;-71
2024/03/07 05:37:21;;;;;;;75.90;40.88;;;2.20;99.90;;;;;;476954;249;29170;-71
2024/03/07 05:39:20;;;;;;;65.47;35.40;;;2.20;99.90;;;;;;468080;251;27564;-71
2024/03/07 05:41:22;;;;;;;68.57;38.72;;;2.20;99.90;;;;;;476995;249;27442;-71
2024/03/07 05:43:23;;;;;;;75.93;38.95;;;2.10;99.90;;;;;;468066;251;27453;-71
2024/03/07 05:45:24;;;;;;;74.07;38.10;;;2.10;99.90;;;;;;476988;249;27446;-71
2024/03/07 05:47:25;;;;;;;62.30;34.45;;;2.10;99.90;;;;;;468039;251;27474;-71
2024/03/07 05:49:27;;;;;;;58.45;33.08;;;2.00;99.90;;;;;;476986;249;27958;-72
2024/03/07 05:51:28;;;;;;;70.37;35.85;;;2.00;99.90;;;;;;468111;251;27891;-71
2024/03/07 05:53:29;;;;;;;62.78;33.05;;;2.00;99.90;;;;;;476974;249;27514;-71
2024/03/07 05:55:32;;;;;;;81.10;37.58;;;2.00;99.90;;;;;;468061;251;27485;-71
2024/03/07 05:57:32;;;;;;;63.22;35.67;;;2.00;99.90;;;;;;476793;249;27529;-71
2024/03/07 05:59:33;;;;;;;65.22;34.63;;;2.00;99.90;;;;;;468130;251;27462;-72
2024/03/07 06:01:34;;;;;;;61.25;32.67;;;2.00;99.90;;;;;;476985;249;27412;-71
2024/03/07 06:03:36;;;;;;;52.95;30.08;;;2.00;99.90;;;;;;468094;251;27453;-71
2024/03/07 06:05:37;;;;;;;65.50;35.72;;;2.00;99.90;;;;;;476970;249;28765;-71
2024/03/07 06:07:38;;;;;;;67.47;36.67;;;2.00;99.90;;;;;;468081;251;29060;-71
2024/03/07 06:09:39;;;;;;;65.72;35.38;;;2.00;99.90;;;;;;476874;249;27521;-70
2024/03/07 06:11:44;;;;;;;70.35;36.85;;;2.00;99.90;;;;;;468096;251;27622;-70
2024/03/07 06:13:46;;;;;;;65.87;35.53;;;2.00;99.90;;;;;;476952;249;27494;-71
2024/03/07 06:15:46;;;;;;;64.90;34.72;;;2.00;99.90;;;;;;468126;251;27546;-71
2024/03/07 06:17:47;;;;;;;63.92;34.25;;;2.00;99.90;;;;;;476965;249;27560;-71
2024/03/07 06:19:49;;;;;;;72.35;36.65;;;2.10;99.90;;;;;;468114;251;27983;-71
2024/03/07 06:21:50;;;;;;;64.68;35.63;;;2.10;99.90;;;;;;477000;249;28096;-71
2024/03/07 06:23:59;;;;;;;55.85;33.40;;;2.10;99.90;;;;;;468036;254;27724;-70
2024/03/07 06:25:54;;;;;;;66.07;37.80;;;2.10;99.90;;;;;;476587;249;27379;-71
2024/03/07 06:27:56;;;;;;;62.40;34.97;;;2.20;99.90;;;;;;468027;251;27453;-71
2024/03/07 06:29:55;;;;;;;60.75;35.58;;;2.20;99.90;;;;;;476875;249;27399;-71
2024/03/07 06:31:57;;;;;;;61.65;33.85;;;2.20;99.90;;;;;;468056;251;27460;-71
2024/03/07 06:33:57;;;;;;;64.40;35.55;;;2.20;99.90;;;;;;476960;249;27433;-72
2024/03/07 06:36:00;;;;;;;71.43;34.28;;;2.30;99.90;;;;;;468096;251;27903;-71
2024/03/07 06:38:00;;;;;;;67.05;36.40;;;2.30;99.90;;;;;;476835;249;28116;-71
2024/03/07 06:40:05;;;;;;;66.22;35.75;;;2.30;99.90;;;;;;468045;251;27453;-70
2024/03/07 06:42:02;;;;;;;61.05;34.20;;;2.30;99.90;;;;;;476800;249;27442;-71
2024/03/07 06:44:04;;;;;;;61.03;33.47;;;2.40;99.90;;;;;;468098;251;27530;-72
2024/03/07 06:46:06;;;;;;;58.78;33.67;;;2.40;99.90;;;;;;476977;249;27423;-71
2024/03/07 06:48:10;;;;;;;59.30;34.70;;;2.40;99.90;;;;;;468026;251;27462;-71
2024/03/07 06:50:09;;;;;;;62.13;33.92;;;2.40;99.90;;;;;;468230;254;27509;-70
2024/03/07 06:52:09;;;;;;;60.00;33.88;;;2.50;99.90;;;;;;476924;249;27913;-71
2024/03/07 06:54:10;;;;;;;47.28;29.33;;;2.50;99.90;;;;;;468092;251;28010;-71
2024/03/07 06:56:12;;;;;;;55.12;31.10;;;2.50;99.90;;;;;;476950;249;27531;-71
2024/03/07 06:58:12;;;;;;;53.38;33.22;;;2.50;99.90;;;;;;467976;254;27473;-71
2024/03/07 07:00:14;;;;;;;49.05;29.55;;;2.50;99.90;;;;;;476985;249;27797;-72
2024/03/07 07:02:15;;;;;;;57.20;31.30;;;2.60;99.90;;;;;;468123;251;27425;-71
2024/03/07 07:04:16;;;;;;;55.72;33.13;;;2.60;99.90;;;;;;476953;249;27446;-71
2024/03/07 07:06:18;;;;;;;56.30;32.45;;;2.60;99.90;;;;;;468055;251;27928;-71
2024/03/07 07:08:19;;;;;;;57.40;33.78;;;2.60;99.90;;;;;;476897;249;27854;-71
2024/03/07 07:10:23;;;;;;;58.87;33.80;;;2.60;99.90;;;;;;467962;254;27538;-71
2024/03/07 07:12:21;;;;;;;60.25;31.55;;;2.60;99.90;;;;;;476801;249;27519;-70
2024/03/07 07:14:22;;;;;;;51.92;29.83;;;2.70;99.90;;;;;;468087;251;27538;-71
2024/03/07 07:16:24;;;;;;;52.88;29.02;;;2.70;99.90;;;;;;476956;249;27434;-71
2024/03/07 07:18:25;;;;;;;44.92;27.30;;;2.70;99.90;;;;;;468075;251;27510;-69
2024/03/07 07:20:27;;;;;;;48.17;28.38;;;2.80;99.90;;;;;;476964;249;27553;-71
2024/03/07 07:22:27;;;;;;;43.63;27.10;;;2.80;99.90;;;;;;468074;251;27880;-71
2024/03/07 07:24:29;;;;;;;43.47;27.05;;;2.90;99.90;;;;;;476933;249;27998;-71
2024/03/07 07:26:32;;;;;;;46.03;25.50;;;2.90;99.90;;;;;;468086;251;27457;-71
2024/03/07 07:28:31;;;;;;;40.33;25.02;;;2.90;99.90;;;;;;476842;249;27445;-70
2024/03/07 07:30:33;;;;;;;40.58;24.75;;;3.00;99.90;;;;;;468070;254;27486;-71
2024/03/07 07:32:35;;;;;;;42.83;26.00;;;3.00;99.90;;;;;;476943;249;27493;-71
2024/03/07 07:34:35;;;;;;;41.72;25.50;;;3.00;99.90;;;;;;468049;251;27462;-71
2024/03/07 07:36:36;;;;;;;37.13;24.00;;;3.10;99.90;;;;;;476985;249;27473;-72
2024/03/07 07:38:38;;;;;;;36.55;24.23;;;3.10;99.90;;;;;;468036;254;27907;-71
2024/03/07 07:40:40;;;;;;;38.50;21.90;;;3.20;99.90;;;;;;476974;249;29067;-71
2024/03/07 07:42:41;;;;;;;39.83;22.75;;;3.20;99.90;;;;;;468023;254;27458;-71
2024/03/07 07:44:43;;;;;;;32.30;21.33;;;3.20;99.90;;;;;;476960;249;27444;-71
2024/03/07 07:46:43;;;;;;;40.40;22.73;;;3.30;99.90;;;;;;468049;254;27472;-73
2024/03/07 07:48:44;;;;;;;33.63;21.60;;;3.30;99.90;;;;;;476924;249;27505;-71
2024/03/07 07:50:45;;;;;;;32.15;20.30;;;3.40;99.90;;;;;;468103;251;27475;-71
2024/03/07 07:52:48;;;;;;;27.37;19.37;;;3.40;99.90;;;;;;476907;249;28078;-73
2024/03/07 07:54:48;;;;;;;32.60;21.25;;;3.40;99.90;;;;;;468050;254;27901;-71
2024/03/07 07:56:49;;;;;;;33.00;20.00;;;3.50;99.90;;;;;;476986;249;27516;-72
2024/03/07 07:58:51;;;;;;;31.17;20.83;;;3.60;99.90;;;;;;468054;251;27483;-71
2024/03/07 08:00:52;;;;;;;33.38;20.60;;;3.70;99.90;;;;;;476960;249;27441;-71
2024/03/07 08:02:53;;;;;;;31.90;20.60;;;3.70;99.90;;;;;;468132;251;27465;-72
2024/03/07 08:04:54;;;;;;;34.30;20.55;;;3.70;99.90;;;;;;476970;249;27391;-71
2024/03/07 08:06:55;;;;;;;33.92;21.23;;;3.70;99.90;;;;;;468091;251;27465;-72
2024/03/07 08:08:56;;;;;;;31.17;20.83;;;3.80;99.90;;;;;;476901;249;28623;-71
2024/03/07 08:10:59;;;;;;;28.12;19.77;;;3.90;99.90;;;;;;468144;251;28070;-71
2024/03/07 08:12:59;;;;;;;32.45;21.95;;;4.00;99.90;;;;;;476929;249;27465;-72
2024/03/07 08:15:00;;;;;;;31.62;21.70;;;4.10;99.90;;;;;;468087;251;27423;-73
2024/03/07 08:17:01;;;;;;;29.60;21.05;;;4.20;99.90;;;;;;476954;249;27530;-71
2024/03/07 08:19:03;;;;;;;30.30;20.73;;;4.20;99.90;;;;;;468089;251;27866;-71
2024/03/07 08:21:04;;;;;;;34.22;20.48;;;4.20;99.90;;;;;;476986;249;27414;-71
2024/03/07 08:23:05;;;;;;;32.22;21.65;;;4.30;99.90;;;;;;468114;251;27941;-72
2024/03/07 08:25:09;;;;;;;33.30;21.30;;;4.40;99.90;;;;;;476950;249;27402;-72
2024/03/07 08:27:11;;;;;;;32.78;21.00;;;4.50;99.90;;;;;;467968;254;27589;-72
2024/03/07 08:29:09;;;;;;;41.85;24.60;;;4.50;99.90;;;;;;476808;249;27450;-73
2024/03/07 08:31:10;;;;;;;50.83;28.08;;;4.60;99.90;;;;;;468090;251;27534;-72
2024/03/07 08:33:13;;;;;;;38.65;23.52;;;4.70;99.90;;;;;;476957;249;27564;-72
2024/03/07 08:35:13;;;;;;;37.70;23.40;;;4.50;99.90;;;;;;468082;251;28786;-71
2024/03/07 08:37:14;;;;;;;38.65;24.42;;;4.40;99.90;;;;;;476990;249;27892;-71
2024/03/07 08:39:15;;;;;;;34.00;21.98;;;4.50;99.90;;;;;;468045;251;27462;-72
2024/03/07 08:41:17;;;;;;;33.72;23.40;;;4.60;99.90;;;;;;476958;249;27391;-72
2024/03/07 08:43:18;;;;;;;34.58;22.95;;;4.40;99.90;;;;;;468100;251;27466;-71
2024/03/07 08:45:19;;;;;;;38.50;23.10;;;4.30;99.90;;;;;;477021;249;27580;-73
2024/03/07 08:47:20;;;;;;;38.13;24.45;;;4.20;99.90;;;;;;468080;251;28021;-72
2024/03/07 08:49:22;;;;;;;36.70;23.27;;;4.20;99.90;;;;;;476970;249;27957;-72
2024/03/07 08:51:23;;;;;;;41.50;24.27;;;4.20;99.90;;;;;;468117;251;27497;-72
2024/03/07 08:53:24;;;;;;;38.08;24.08;;;4.10;99.90;;;;;;476960;249;27438;-71
2024/03/07 08:55:25;;;;;;;35.25;23.35;;;4.10;99.90;;;;;;468109;251;27592;-71
2024/03/07 08:57:27;;;;;;;35.50;23.30;;;4.10;99.90;;;;;;476934;249;27415;-72
2024/03/07 08:59:28;;;;;;;40.47;23.02;;;4.20;99.90;;;;;;468105;251;27917;-72
2024/03/07 09:01:29;;;;;;;37.42;24.48;;;4.30;99.90;;;;;;477002;249;28090;-71
2024/03/07 09:03:30;;;;;;;38.50;23.33;;;4.30;99.90;;;;;;468107;253;27506;-71
2024/03/07 09:05:33;;;;;;;34.47;22.30;;;4.20;99.90;;;;;;476974;249;27541;-72
2024/03/07 09:07:33;;;;;;;36.28;22.35;;;4.30;99.90;;;;;;467968;254;27423;-71
2024/03/07 09:09:34;;;;;;;34.50;22.77;;;4.40;99.90;;;;;;476933;249;27486;-71
2024/03/07 09:11:36;;;;;;;37.33;22.58;;;4.40;99.90;;;;;;468157;251;27568;-72
2024/03/07 09:13:37;;;;;;;33.75;21.12;;;4.50;99.90;;;;;;476966;249;27870;-72
2024/03/07 09:15:38;;;;;;;29.75;21.23;;;4.70;99.90;;;;;;468096;251;27945;-71
2024/03/07 09:17:39;;;;;;;35.90;21.35;;;4.90;99.90;;;;;;476895;249;27402;-73
2024/03/07 09:19:41;;;;;;;34.20;22.10;;;4.90;99.90;;;;;;468143;251;27481;-72
2024/03/07 09:21:42;;;;;;;30.90;21.12;;;4.80;99.90;;;;;;476849;249;27461;-72
2024/03/07 09:23:43;;;;;;;28.55;19.33;;;5.10;99.90;;;;;;468069;251;27431;-72
2024/03/07 09:25:45;;;;;;;29.20;20.35;;;5.10;99.90;;;;;;476923;249;28057;-72
2024/03/07 09:27:46;;;;;;;27.35;19.40;;;4.90;99.90;;;;;;468081;251;27565;-71
2024/03/07 09:29:50;;;;;;;27.08;17.35;;;5.00;99.90;;;;;;477017;249;27554;-71
2024/03/07 09:31:54;;;;;;;26.55;18.08;;;4.80;99.90;;;;;;468088;251;27419;-71
2024/03/07 09:33:58;;;;;;;24.98;18.20;;;5.00;99.90;;;;;;477004;249;27477;-72
2024/03/07 09:35:58;;;;;;;25.67;18.27;;;5.10;99.90;;;;;;468026;254;27859;-72
2024/03/07 09:37:58;;;;;;;25.73;17.50;;;5.00;99.90;;;;;;476902;249;27474;-72
2024/03/07 09:39:59;;;;;;;24.00;18.17;;;4.90;99.90;;;;;;468113;251;27421;-74
2024/03/07 09:42:01;;;;;;;25.73;17.50;;;4.80;99.90;;;;;;476988;249;27573;-73
2024/03/07 09:44:03;;;;;;;25.90;18.10;;;4.80;99.90;;;;;;468159;251;27589;-71
2024/03/07 09:46:03;;;;;;;24.98;16.37;;;4.70;99.90;;;;;;477018;249;27954;-72
2024/03/07 09:48:04;;;;;;;25.37;16.67;;;4.70;99.90;;;;;;468113;251;27947;-72
2024/03/07 09:50:08;;;;;;;22.92;16.08;;;4.90;99.90;;;;;;477027;249;27410;-71
2024/03/07 09:52:11;;;;;;;26.20;16.73;;;4.90;99.90;;;;;;468019;254;27441;-71
2024/03/07 09:54:11;;;;;;;22.25;16.42;;;5.00;99.90;;;;;;476942;249;27529;-71
2024/03/07 09:56:13;;;;;;;24.75;17.17;;;5.00;99.90;;;;;;468147;251;27958;-74
2024/03/07 09:58:13;;;;;;;28.23;17.20;;;5.00;99.90;;;;;;476966;249;27857;-70
2024/03/07 10:00:22;;;;;;;31.37;17.98;;;5.10;99.90;;;;;;468092;254;27458;-72
2024/03/07 10:02:16;;;;;;;27.23;17.20;;;5.10;99.90;;;;;;476615;249;27426;-71
2024/03/07 10:04:17;;;;;;;26.73;18.55;;;5.10;99.90;;;;;;468146;251;27532;-74
2024/03/07 10:06:21;;;;;;;28.80;18.45;;;5.00;99.90;;;;;;477019;249;27930;-74
2024/03/07 10:08:21;;;;;;;23.70;17.05;;;4.80;99.90;;;;;;468030;251;28032;-73
2024/03/07 10:10:21;;;;;;;26.10;17.40;;;5.00;99.90;;;;;;476962;249;27548;-70
2024/03/07 10:12:22;;;;;;;26.23;17.52;;;5.00;99.90;;;;;;468161;251;27527;-73
2024/03/07 10:14:24;;;;;;;24.70;18.45;;;5.10;99.90;;;;;;477029;249;28758;-71
2024/03/07 10:16:25;;;;;;;24.92;16.95;;;4.90;99.90;;;;;;468142;251;27592;-72
2024/03/07 10:18:27;;;;;;;26.40;18.65;;;4.90;99.90;;;;;;476973;249;27438;-74
2024/03/07 10:20:27;;;;;;;25.98;18.05;;;4.80;99.90;;;;;;468120;251;27410;-73
2024/03/07 10:22:29;;;;;;;24.40;16.58;;;4.80;99.90;;;;;;477041;249;27557;-72